createdAt,value
2023-02-07T00:03:43.165Z,99.90
2023-02-07T00:08:45.790Z,99.90
2023-02-07T00:13:51.162Z,99.90
2023-02-07T00:18:54.455Z,99.90
2023-02-07T00:23:57.783Z,99.90
2023-02-07T00:29:00.014Z,99.90
2023-02-07T00:34:05.411Z,99.90
2023-02-07T00:39:15.756Z,99.90
2023-02-07T00:44:17.992Z,99.90
2023-02-07T00:49:20.764Z,99.90
2023-02-07T00:54:23.077Z,99.90
2023-02-07T00:59:27.003Z,99.90
2023-02-07T01:04:29.477Z,99.80
2023-02-07T01:09:31.933Z,99.90
2023-02-07T01:14:34.344Z,99.90
2023-02-07T01:19:37.292Z,99.90
2023-02-07T01:24:39.529Z,99.90
2023-02-07T01:29:41.904Z,99.90
2023-02-07T01:34:44.189Z,99.90
2023-02-07T01:39:47.786Z,99.90
2023-02-07T01:45:02.673Z,99.90
2023-02-07T01:50:05.447Z,99.90
2023-02-07T01:55:12.409Z,99.90
2023-02-07T02:00:17.492Z,99.90
2023-02-07T02:05:19.864Z,99.90
2023-02-07T02:10:28.340Z,99.90
2023-02-07T02:15:39.538Z,99.90
2023-02-07T02:21:09.740Z,99.90
2023-02-07T02:26:37.842Z,99.90
2023-02-07T02:32:24.706Z,99.90
2023-02-07T02:37:46.460Z,99.90
2023-02-07T02:43:05.724Z,99.90
2023-02-07T02:48:10.558Z,99.90
2023-02-07T02:53:13.985Z,99.50
2023-02-07T02:58:34.182Z,99.90
2023-02-07T03:04:03.097Z,99.90
2023-02-07T03:09:37.568Z,99.90
2023-02-07T03:14:57.752Z,99.90
2023-02-07T03:20:05.323Z,99.90
2023-02-07T03:25:09.908Z,99.90
2023-02-07T03:30:18.360Z,99.90
2023-02-07T03:35:28.481Z,99.90
2023-02-07T03:40:36.105Z,99.90
2023-02-07T03:45:39.130Z,99.90
2023-02-07T03:50:41.495Z,99.90
2023-02-07T03:55:44.007Z,99.90
2023-02-07T04:00:46.321Z,99.90
2023-02-07T04:05:49.571Z,99.90
2023-02-07T04:11:02.509Z,99.90
2023-02-07T04:16:05.941Z,99.90
2023-02-07T04:21:09.163Z,99.90
2023-02-07T04:26:11.504Z,99.90
2023-02-07T04:31:13.771Z,99.90
2023-02-07T04:36:16.247Z,99.80
2023-02-07T04:41:18.544Z,99.90
2023-02-07T04:46:20.951Z,99.90
2023-02-07T04:51:23.320Z,99.90
2023-02-07T04:56:25.656Z,99.90
2023-02-07T05:01:27.975Z,99.90
2023-02-07T05:06:30.450Z,99.90
2023-02-07T05:11:32.750Z,99.90
2023-02-07T05:16:35.110Z,99.90
2023-02-07T05:21:37.376Z,99.90
2023-02-07T05:26:40.485Z,99.90
2023-02-07T05:32:01.660Z,99.90
2023-02-07T05:37:03.979Z,99.90
2023-02-07T05:42:06.244Z,99.90
2023-02-07T05:47:08.515Z,99.90
2023-02-07T05:52:10.801Z,99.90
2023-02-07T05:57:13.118Z,99.90
2023-02-07T06:02:15.486Z,99.90
2023-02-07T06:07:17.835Z,99.90
2023-02-07T06:12:20.119Z,99.90
2023-02-07T06:17:22.475Z,99.90
2023-02-07T06:22:24.952Z,99.90
2023-02-07T06:27:27.200Z,99.90
2023-02-07T06:32:29.509Z,99.90
2023-02-07T06:37:32.019Z,99.90
2023-02-07T06:42:34.385Z,99.90
2023-02-07T06:47:36.796Z,99.90
2023-02-07T06:52:39.100Z,99.90
2023-02-07T06:57:54.416Z,99.90
2023-02-07T07:02:57.016Z,99.90
2023-02-07T07:08:04.469Z,99.90
2023-02-07T07:13:09.461Z,99.90
2023-02-07T07:18:11.905Z,99.90
2023-02-07T07:23:14.327Z,99.90
2023-02-07T07:28:16.766Z,99.90
2023-02-07T07:33:19.156Z,99.90
2023-02-07T07:44:21.392Z,99.90
2023-02-07T07:49:23.977Z,99.90
2023-02-07T07:54:26.358Z,99.90
2023-02-07T07:59:28.994Z,99.90
2023-02-07T08:04:31.324Z,99.90
2023-02-07T08:09:33.712Z,99.90
2023-02-07T08:14:35.950Z,99.90
2023-02-07T08:19:38.469Z,99.90
2023-02-07T08:24:41.970Z,99.90
2023-02-07T08:29:45.816Z,99.90
2023-02-07T08:34:48.161Z,99.90
2023-02-07T08:39:52.880Z,99.90
2023-02-07T08:44:57.156Z,99.90
2023-02-07T08:49:59.467Z,99.90
2023-02-07T08:55:01.776Z,99.90
2023-02-07T09:00:06.080Z,99.90
2023-02-07T09:05:17.507Z,99.90
2023-02-07T09:11:01.249Z,99.90
2023-02-07T09:16:06.812Z,99.90
2023-02-07T09:21:09.634Z,99.90
2023-02-07T09:26:20.659Z,99.90
2023-02-07T09:31:24.730Z,99.90
2023-02-07T09:36:28.913Z,99.90
2023-02-07T09:41:43.496Z,99.90
2023-02-07T09:46:52.820Z,99.90
2023-02-07T09:51:57.176Z,99.90
2023-02-07T09:57:04.013Z,99.90
2023-02-07T10:02:23.694Z,99.90
2023-02-07T10:07:26.390Z,99.90
2023-02-07T10:13:16.362Z,99.90
2023-02-07T10:18:45.850Z,99.90
2023-02-07T10:24:10.065Z,99.90
2023-02-07T10:29:55.375Z,99.90
2023-02-07T10:35:03.660Z,99.90
2023-02-07T10:40:24.746Z,99.90
2023-02-07T10:45:33.842Z,99.90
2023-02-07T10:50:38.120Z,99.90
2023-02-07T10:56:01.119Z,99.90
2023-02-07T11:01:03.809Z,99.90
2023-02-07T11:06:08.073Z,99.90
2023-02-07T11:11:33.006Z,99.40
2023-02-07T11:16:35.685Z,99.30
2023-02-07T11:21:43.325Z,99.00
2023-02-07T11:26:57.190Z,97.80
2023-02-07T11:32:01.807Z,98.70
2023-02-07T11:37:17.660Z,98.10
2023-02-07T11:42:32.346Z,97.00
2023-02-07T11:47:35.913Z,97.10
2023-02-07T11:52:40.826Z,96.70
2023-02-07T11:57:45.672Z,97.00
2023-02-07T12:02:59.754Z,96.10
2023-02-07T12:08:16.766Z,96.20
2023-02-07T12:13:24.370Z,95.90
2023-02-07T12:18:31.387Z,95.90
2023-02-07T12:23:52.427Z,96.00
2023-02-07T12:29:21.998Z,94.00
2023-02-07T12:34:45.871Z,92.20
2023-02-07T12:40:00.116Z,91.40
2023-02-07T12:45:04.320Z,93.50
2023-02-07T12:50:26.990Z,93.50
2023-02-07T12:55:44.584Z,92.90
2023-02-07T13:01:15.964Z,92.40
2023-02-07T13:06:46.840Z,92.50
2023-02-07T13:12:17.676Z,92.70
2023-02-07T13:18:07.642Z,92.00
2023-02-07T13:23:25.876Z,92.10
2023-02-07T13:29:08.903Z,91.80
2023-02-07T13:34:28.721Z,92.20
2023-02-07T13:46:56.655Z,92.60
2023-02-07T13:52:36.466Z,92.20
2023-02-07T13:57:52.150Z,93.30
2023-02-07T14:03:21.846Z,94.00
2023-02-07T14:08:27.055Z,93.10
2023-02-07T14:13:38.677Z,92.90
2023-02-07T14:18:51.565Z,93.80
2023-02-07T14:24:09.090Z,93.60
2023-02-07T14:29:21.033Z,93.70
2023-02-07T14:34:29.003Z,92.70
2023-02-07T14:39:51.575Z,93.70
2023-02-07T14:45:06.457Z,93.10
2023-02-07T14:50:26.817Z,93.10
2023-02-07T14:55:37.364Z,93.20
2023-02-07T15:00:53.897Z,93.20
2023-02-07T15:06:01.754Z,93.50
2023-02-07T15:11:10.811Z,93.40
2023-02-07T15:16:22.402Z,93.50
2023-02-07T15:21:35.164Z,93.70
2023-02-07T15:26:37.500Z,93.30
2023-02-07T15:31:41.333Z,93.90
2023-02-07T15:36:48.741Z,94.00
2023-02-07T15:41:52.863Z,94.60
2023-02-07T15:47:06.869Z,94.70
2023-02-07T15:52:35.674Z,94.60
2023-02-07T15:57:42.634Z,94.80
2023-02-07T16:02:53.940Z,95.40
2023-02-07T16:07:57.045Z,95.70
2023-02-07T16:13:17.329Z,96.80
2023-02-07T16:18:41.846Z,97.70
2023-02-07T16:23:45.280Z,98.50
2023-02-07T16:28:47.910Z,97.40
2023-02-07T16:33:50.311Z,97.40
2023-02-07T16:38:52.542Z,97.80
2023-02-07T16:43:55.488Z,97.80
2023-02-07T16:48:57.819Z,97.40
2023-02-07T16:54:00.095Z,97.20
2023-02-07T16:59:04.001Z,97.20
2023-02-07T17:04:06.306Z,98.20
2023-02-07T17:09:25.461Z,97.80
2023-02-07T17:14:28.726Z,98.10
2023-02-07T17:19:31.089Z,98.20
2023-02-07T17:24:33.565Z,98.60
2023-02-07T17:29:35.858Z,98.70
2023-02-07T17:34:38.117Z,98.40
2023-02-07T17:39:40.310Z,99.60
2023-02-07T17:44:42.598Z,99.90
2023-02-07T17:49:44.844Z,99.90
2023-02-07T17:54:47.076Z,99.90
2023-02-07T17:59:49.325Z,99.90
2023-02-07T18:04:51.718Z,99.90
2023-02-07T18:09:54.001Z,99.90
2023-02-07T18:14:56.873Z,99.90
2023-02-07T18:19:59.171Z,99.90
2023-02-07T18:25:01.500Z,99.90
2023-02-07T18:30:06.136Z,99.90
2023-02-07T18:35:08.725Z,99.90
2023-02-07T18:40:13.011Z,99.90
2023-02-07T18:45:15.497Z,99.90
2023-02-07T18:50:20.903Z,99.90
2023-02-07T18:55:23.181Z,99.90
2023-02-07T19:00:25.430Z,99.90
2023-02-07T19:05:27.924Z,99.90
2023-02-07T19:10:30.263Z,99.90
2023-02-07T19:15:32.579Z,99.90
2023-02-07T19:20:34.916Z,99.90
2023-02-07T19:25:37.563Z,99.90
2023-02-07T19:30:41.638Z,99.90
2023-02-07T19:35:44.261Z,97.70
2023-02-07T19:40:56.443Z,96.10
2023-02-07T19:45:58.853Z,98.40
2023-02-07T19:51:04.133Z,98.60
2023-02-07T19:56:11.338Z,99.70
2023-02-07T20:01:14.038Z,99.90
2023-02-07T20:06:21.253Z,98.40
2023-02-07T20:11:23.595Z,95.40
2023-02-07T20:16:26.531Z,96.60
2023-02-07T20:21:30.780Z,96.40
2023-02-07T20:26:38.961Z,96.30
2023-02-07T20:31:42.170Z,97.20
2023-02-07T20:36:44.761Z,98.30
2023-02-07T20:41:49.447Z,98.70
2023-02-07T20:46:53.216Z,98.80
2023-02-07T20:51:57.483Z,99.30
2023-02-07T20:56:59.862Z,98.90
2023-02-07T21:02:02.695Z,97.30
2023-02-07T21:07:08.172Z,96.80
2023-02-07T21:12:10.654Z,97.10
2023-02-07T21:17:13.290Z,97.80
2023-02-07T21:22:15.514Z,97.20
2023-02-07T21:27:17.885Z,96.00
2023-02-07T21:32:20.194Z,97.30
2023-02-07T21:37:23.842Z,97.30
2023-02-07T21:42:26.318Z,97.60
2023-02-07T21:47:28.921Z,96.50
2023-02-07T21:52:31.439Z,97.10
2023-02-07T21:57:33.824Z,97.30
2023-02-07T22:02:36.267Z,95.70
2023-02-07T22:07:38.938Z,95.60
2023-02-07T22:12:41.206Z,94.90
2023-02-07T22:17:43.479Z,94.60
2023-02-07T22:22:45.746Z,93.80
2023-02-07T22:27:48.040Z,94.10
2023-02-07T22:32:50.498Z,94.00
2023-02-07T22:37:52.768Z,93.70
2023-02-07T22:42:56.166Z,94.10
2023-02-07T22:47:58.398Z,94.10
2023-02-07T22:53:00.708Z,93.70
2023-02-07T22:58:02.931Z,93.80
2023-02-07T23:03:05.216Z,93.90
2023-02-07T23:08:08.031Z,93.00
2023-02-07T23:13:10.752Z,93.30
2023-02-07T23:18:15.528Z,93.40
2023-02-07T23:23:17.809Z,93.20
2023-02-07T23:28:20.165Z,93.70
2023-02-07T23:33:22.418Z,93.50
2023-02-07T23:38:25.042Z,93.80
2023-02-07T23:43:27.766Z,93.00
2023-02-07T23:48:30.102Z,92.80
2023-02-07T23:53:32.663Z,93.20
2023-02-07T23:58:34.974Z,92.80
